createdAt,value
2022-10-23T00:01:15.855Z,6.18
2022-10-23T00:11:21.768Z,5.99
2022-10-23T00:21:25.094Z,5.82
2022-10-23T00:31:27.270Z,5.57
2022-10-23T00:41:30.233Z,5.31
2022-10-23T00:51:38.610Z,5.21
2022-10-23T01:01:41.472Z,5.26
2022-10-23T01:12:05.063Z,5.39
2022-10-23T01:22:22.345Z,5.43
2022-10-23T01:32:31.223Z,5.35
2022-10-23T01:42:39.985Z,5.29
2022-10-23T01:52:42.354Z,5.17
2022-10-23T02:02:46.260Z,4.99
2022-10-23T02:12:59.279Z,4.90
2022-10-23T02:23:11.411Z,4.84
2022-10-23T02:33:14.644Z,4.80
2022-10-23T02:43:27.684Z,4.89
2022-10-23T02:53:53.776Z,5.05
2022-10-23T03:03:59.305Z,5.22
2022-10-23T03:14:01.554Z,5.09
2022-10-23T03:24:03.982Z,4.96
2022-10-23T03:34:11.159Z,4.79
2022-10-23T03:44:13.300Z,4.70
2022-10-23T03:54:15.390Z,4.64
2022-10-23T04:04:17.592Z,4.57
2022-10-23T04:14:20.099Z,4.47
2022-10-23T04:24:23.522Z,4.36
2022-10-23T04:34:25.597Z,4.42
2022-10-23T04:44:27.680Z,4.38
2022-10-23T04:54:29.747Z,4.18
2022-10-23T05:04:31.878Z,4.10
2022-10-23T05:14:34.036Z,4.07
2022-10-23T05:24:36.211Z,4.09
2022-10-23T05:34:39.231Z,4.14
2022-10-23T05:44:41.527Z,4.06
2022-10-23T05:54:43.595Z,3.92
2022-10-23T06:04:45.684Z,3.88
2022-10-23T06:14:48.468Z,3.97
2022-10-23T06:24:50.715Z,4.18
2022-10-23T06:34:52.902Z,4.50
2022-10-23T06:44:55.479Z,5.03
2022-10-23T06:54:57.619Z,5.54
2022-10-23T07:04:59.712Z,6.09
2022-10-23T07:15:01.929Z,6.47
2022-10-23T07:25:04.337Z,6.85
2022-10-23T07:35:07.737Z,7.12
2022-10-23T07:45:10.416Z,7.44
2022-10-23T07:55:12.902Z,7.96
2022-10-23T08:05:15.052Z,8.48
2022-10-23T08:15:17.199Z,8.97
2022-10-23T08:25:24.710Z,9.35
2022-10-23T08:35:27.969Z,9.62
2022-10-23T08:46:00.112Z,9.82
2022-10-23T08:56:07.016Z,10.15
2022-10-23T09:06:39.444Z,10.85
2022-10-23T09:17:05.850Z,11.90
2022-10-23T09:27:15.147Z,12.91
2022-10-23T09:37:37.591Z,13.47
2022-10-23T09:47:39.834Z,14.48
2022-10-23T09:57:44.289Z,15.23
2022-10-23T10:07:56.303Z,15.70
2022-10-23T10:18:09.859Z,16.24
2022-10-23T10:28:36.758Z,16.66
2022-10-23T10:38:59.806Z,16.91
2022-10-23T10:49:15.489Z,17.22
2022-10-23T10:59:41.874Z,17.45
2022-10-23T11:09:44.125Z,17.32
2022-10-23T11:20:03.445Z,17.56
2022-10-23T11:30:36.202Z,17.86
2022-10-23T11:40:45.469Z,17.90
2022-10-23T11:50:47.572Z,18.49
2022-10-23T12:00:55.615Z,18.42
2022-10-23T12:10:57.974Z,18.34
2022-10-23T12:21:03.396Z,18.19
2022-10-23T12:31:38.926Z,17.66
2022-10-23T12:41:42.757Z,17.52
2022-10-23T12:51:45.461Z,17.32
2022-10-23T13:01:52.433Z,16.99
2022-10-23T13:11:56.288Z,16.74
2022-10-23T13:21:59.087Z,16.58
2022-10-23T13:32:11.986Z,16.55
2022-10-23T13:42:15.169Z,16.52
2022-10-23T13:52:20.907Z,16.39
2022-10-23T14:02:24.520Z,16.06
2022-10-23T14:12:26.705Z,15.76
2022-10-23T14:22:28.902Z,15.44
2022-10-23T14:32:31.434Z,14.97
2022-10-23T14:42:34.537Z,14.64
2022-10-23T14:52:36.614Z,14.10
2022-10-23T15:02:38.721Z,13.86
2022-10-23T15:12:41.250Z,13.51
2022-10-23T15:22:43.938Z,13.13
2022-10-23T15:32:46.356Z,12.69
2022-10-23T15:42:49.881Z,12.05
2022-10-23T15:52:53.468Z,11.44
2022-10-23T16:02:55.708Z,10.87
2022-10-23T16:12:57.809Z,10.31
2022-10-23T16:22:59.981Z,9.95
2022-10-23T16:33:02.102Z,9.65
2022-10-23T16:43:04.526Z,9.63
2022-10-23T16:53:07.410Z,9.54
2022-10-23T17:03:10.935Z,9.44
2022-10-23T17:13:13.176Z,9.36
2022-10-23T17:23:15.297Z,9.11
2022-10-23T17:33:18.058Z,9.15
2022-10-23T17:43:20.186Z,9.22
2022-10-23T17:53:22.260Z,9.21
2022-10-23T18:03:24.341Z,9.33
2022-10-23T18:13:26.413Z,9.37
2022-10-23T18:23:29.293Z,9.38
2022-10-23T18:33:31.464Z,9.16
2022-10-23T18:43:44.072Z,8.94
2022-10-23T18:53:46.949Z,8.78
2022-10-23T19:03:49.246Z,8.90
2022-10-23T19:13:51.748Z,9.04
2022-10-23T19:23:53.836Z,9.05
2022-10-23T19:33:56.123Z,8.96
2022-10-23T19:43:58.479Z,8.82
2022-10-23T19:54:00.959Z,8.58
2022-10-23T20:04:03.144Z,8.30
2022-10-23T20:14:06.422Z,8.17
2022-10-23T20:24:08.849Z,8.05
2022-10-23T20:40:12.537Z,7.96
2022-10-23T20:50:14.721Z,7.92
2022-10-23T21:00:17.208Z,7.82
2022-10-23T21:10:19.378Z,7.78
2022-10-23T21:20:21.450Z,7.82
2022-10-23T21:30:23.623Z,7.92
2022-10-23T21:40:26.430Z,8.12
2022-10-23T21:50:28.505Z,8.42
2022-10-23T22:00:30.684Z,8.61
2022-10-23T22:10:35.253Z,8.82
2022-10-23T22:20:37.392Z,8.90
2022-10-23T22:30:39.455Z,9.12
2022-10-23T22:40:46.376Z,9.26
2022-10-23T22:50:48.813Z,9.34
2022-10-23T23:00:52.298Z,9.36
2022-10-23T23:10:56.416Z,9.54
2022-10-23T23:21:05.420Z,11.00
2022-10-23T23:31:13.878Z,12.69
2022-10-23T23:41:18.816Z,13.67
2022-10-23T23:51:23.201Z,14.13
